createdAt,value
2022-10-01T00:00:31.752Z,16.69
2022-10-01T00:01:33.780Z,16.61
2022-10-01T00:02:37.530Z,16.63
2022-10-01T00:03:40.469Z,16.66
2022-10-01T00:04:42.269Z,16.59
2022-10-01T00:05:44.720Z,16.51
2022-10-01T00:06:46.726Z,16.38
2022-10-01T00:07:48.641Z,16.42
2022-10-01T00:08:50.585Z,16.42
2022-10-01T00:09:52.385Z,16.49
2022-10-01T00:10:55.342Z,16.50
2022-10-01T00:11:57.714Z,16.36
2022-10-01T00:12:59.715Z,16.36
2022-10-01T00:14:01.606Z,16.39
2022-10-01T00:15:06.253Z,16.44
2022-10-01T00:16:11.917Z,16.45
2022-10-01T00:17:14.331Z,16.52
2022-10-01T00:18:16.357Z,16.59
2022-10-01T00:19:18.368Z,16.62
2022-10-01T00:20:20.271Z,16.60
2022-10-01T00:21:25.558Z,16.60
2022-10-01T00:22:30.749Z,16.61
2022-10-01T00:23:32.861Z,16.66
2022-10-01T00:24:34.673Z,16.71
2022-10-01T00:25:36.858Z,16.76
2022-10-01T00:26:39.391Z,16.76
2022-10-01T00:27:46.087Z,16.71
2022-10-01T00:28:51.821Z,16.71
2022-10-01T00:29:54.658Z,16.75
2022-10-01T00:30:56.563Z,16.77
2022-10-01T00:31:58.586Z,16.72
2022-10-01T00:33:00.558Z,16.67
2022-10-01T00:34:03.020Z,16.59
2022-10-01T00:35:05.705Z,16.56
2022-10-01T00:36:09.867Z,16.63
2022-10-01T00:37:11.924Z,16.66
2022-10-01T00:38:13.741Z,16.71
2022-10-01T00:39:15.589Z,16.79
2022-10-01T00:40:20.932Z,16.79
2022-10-01T00:41:22.788Z,16.81
2022-10-01T00:42:26.240Z,16.81
2022-10-01T00:43:30.993Z,16.79
2022-10-01T00:44:36.807Z,16.77
2022-10-01T00:45:38.925Z,16.75
2022-10-01T00:46:44.560Z,16.64
2022-10-01T00:47:53.210Z,16.52
2022-10-01T00:49:01.543Z,16.53
2022-10-01T00:50:12.992Z,16.56
2022-10-01T00:51:15.430Z,16.62
2022-10-01T00:52:20.989Z,16.65
2022-10-01T00:53:24.997Z,16.62
2022-10-01T00:54:30.626Z,16.59
2022-10-01T00:55:36.822Z,16.62
2022-10-01T00:56:40.302Z,16.64
2022-10-01T00:57:43.554Z,16.62
2022-10-01T00:58:45.911Z,16.54
2022-10-01T00:59:50.896Z,16.51
2022-10-01T01:00:55.282Z,16.49
2022-10-01T01:01:57.775Z,16.55
2022-10-01T01:03:00.225Z,16.51
2022-10-01T01:04:02.341Z,16.49
2022-10-01T01:05:05.991Z,16.49
2022-10-01T01:06:09.375Z,16.49
2022-10-01T01:07:12.279Z,16.40
2022-10-01T01:08:15.246Z,16.33
2022-10-01T01:09:17.314Z,16.28
2022-10-01T01:10:31.903Z,16.38
2022-10-01T01:11:40.640Z,16.42
2022-10-01T01:13:04.788Z,16.48
2022-10-01T01:14:19.344Z,16.47
2022-10-01T01:15:31.049Z,16.51
2022-10-01T01:16:39.604Z,16.52
2022-10-01T01:18:03.689Z,16.55
2022-10-01T01:19:15.468Z,16.59
2022-10-01T01:20:21.283Z,16.61
2022-10-01T01:21:29.604Z,16.61
2022-10-01T01:22:34.566Z,16.67
2022-10-01T01:23:52.458Z,16.64
2022-10-01T01:25:10.070Z,16.51
2022-10-01T01:26:21.866Z,16.47
2022-10-01T01:27:27.473Z,16.47
2022-10-01T01:28:33.113Z,16.48
2022-10-01T01:29:44.839Z,16.55
2022-10-01T01:30:50.156Z,16.56
2022-10-01T01:31:55.897Z,16.58
2022-10-01T01:33:04.543Z,16.61
2022-10-01T01:34:10.203Z,16.68
2022-10-01T01:35:18.868Z,16.72
2022-10-01T01:36:30.424Z,16.75
2022-10-01T01:37:36.952Z,16.76
2022-10-01T01:38:42.561Z,16.84
2022-10-01T01:39:48.390Z,16.86
2022-10-01T01:40:53.127Z,16.86
2022-10-01T01:41:59.138Z,16.85
2022-10-01T01:43:04.796Z,16.87
2022-10-01T01:44:10.476Z,16.92
2022-10-01T01:45:16.093Z,16.91
2022-10-01T01:46:20.215Z,16.92
2022-10-01T01:47:24.884Z,16.89
2022-10-01T01:48:30.137Z,16.90
2022-10-01T01:49:33.640Z,16.86
2022-10-01T01:50:39.902Z,16.86
2022-10-01T01:51:54.255Z,16.83
2022-10-01T01:52:56.755Z,16.83
2022-10-01T01:53:59.544Z,16.79
2022-10-01T01:55:02.242Z,16.76
2022-10-01T01:56:07.392Z,16.73
2022-10-01T01:57:11.034Z,16.71
2022-10-01T01:58:13.572Z,16.72
2022-10-01T01:59:16.920Z,16.71
2022-10-01T02:00:19.705Z,16.70
2022-10-01T02:01:38.534Z,16.70
2022-10-01T02:02:44.392Z,16.60
2022-10-01T02:03:46.538Z,16.51
2022-10-01T02:04:54.806Z,16.49
2022-10-01T02:06:06.167Z,16.42
2022-10-01T02:07:31.619Z,16.40
2022-10-01T02:08:49.543Z,16.41
2022-10-01T02:09:57.972Z,16.38
2022-10-01T02:11:15.875Z,16.37
2022-10-01T02:13:59.449Z,16.44
2022-10-01T02:15:11.581Z,16.30
2022-10-01T02:16:44.631Z,16.32
2022-10-01T02:18:14.918Z,16.32
2022-10-01T02:19:30.208Z,16.28
2022-10-01T02:20:35.846Z,16.18
2022-10-01T02:21:40.770Z,16.19
2022-10-01T02:23:01.870Z,16.11
2022-10-01T02:24:27.273Z,16.09
2022-10-01T02:25:33.052Z,16.05
2022-10-01T02:26:37.526Z,16.01
2022-10-01T02:27:43.214Z,16.01
2022-10-01T02:28:49.028Z,15.95
2022-10-01T02:29:55.143Z,15.89
2022-10-01T02:30:59.861Z,15.80
2022-10-01T02:32:02.090Z,15.78
2022-10-01T02:33:06.891Z,15.81
2022-10-01T02:34:12.827Z,15.77
2022-10-01T02:35:17.992Z,15.68
2022-10-01T02:36:21.547Z,15.66
2022-10-01T02:37:26.423Z,15.64
2022-10-01T02:38:30.297Z,15.64
2022-10-01T02:39:34.781Z,15.64
2022-10-01T02:40:40.583Z,15.64
2022-10-01T02:41:45.410Z,15.70
2022-10-01T02:42:53.814Z,15.72
2022-10-01T02:44:02.512Z,15.68
2022-10-01T02:45:06.553Z,15.65
2022-10-01T02:46:18.947Z,15.58
2022-10-01T02:47:24.657Z,15.55
2022-10-01T02:48:26.701Z,15.45
2022-10-01T02:49:31.112Z,15.48
2022-10-01T02:51:59.491Z,15.66
2022-10-01T02:53:08.126Z,15.49
2022-10-01T02:55:46.978Z,15.36
2022-10-01T02:56:54.240Z,15.22
2022-10-01T02:57:56.383Z,15.24
2022-10-01T02:58:58.301Z,15.30
2022-10-01T03:00:03.146Z,15.35
2022-10-01T03:01:05.326Z,15.29
2022-10-01T03:02:07.664Z,15.21
2022-10-01T03:03:09.783Z,15.16
2022-10-01T03:04:11.646Z,15.18
2022-10-01T03:05:14.512Z,15.23
2022-10-01T03:06:16.894Z,15.17
2022-10-01T03:07:18.736Z,15.22
2022-10-01T03:08:20.583Z,15.30
2022-10-01T03:09:22.334Z,15.33
2022-10-01T03:10:24.108Z,15.29
2022-10-01T03:11:26.908Z,15.30
2022-10-01T03:12:29.603Z,15.32
2022-10-01T03:13:31.580Z,15.34
2022-10-01T03:14:33.420Z,15.36
2022-10-01T03:15:36.135Z,15.33
2022-10-01T03:16:39.239Z,15.15
2022-10-01T03:17:41.406Z,15.23
2022-10-01T03:18:43.257Z,15.17
2022-10-01T03:19:45.310Z,15.17
2022-10-01T03:20:47.545Z,15.21
2022-10-01T03:21:50.066Z,15.23
2022-10-01T03:22:51.977Z,15.23
2022-10-01T03:23:54.967Z,15.24
2022-10-01T03:24:57.915Z,15.10
2022-10-01T03:26:00.121Z,15.00
2022-10-01T03:27:02.039Z,14.97
2022-10-01T03:28:04.942Z,15.05
2022-10-01T03:29:06.871Z,15.03
2022-10-01T03:30:11.135Z,15.05
2022-10-01T03:31:13.189Z,15.00
2022-10-01T03:32:16.479Z,14.92
2022-10-01T03:33:18.379Z,14.89
2022-10-01T03:34:21.172Z,14.90
2022-10-01T03:35:22.971Z,14.63
2022-10-01T03:36:24.721Z,14.38
2022-10-01T03:37:26.714Z,14.38
2022-10-01T03:38:29.154Z,14.31
2022-10-01T03:39:31.262Z,14.22
2022-10-01T03:40:33.187Z,14.12
2022-10-01T03:41:36.508Z,14.04
2022-10-01T03:42:38.860Z,14.04
2022-10-01T03:43:40.667Z,14.06
2022-10-01T03:44:43.248Z,13.98
2022-10-01T03:45:45.670Z,13.98
2022-10-01T03:46:48.247Z,13.97
2022-10-01T03:47:54.178Z,13.96
2022-10-01T03:48:57.023Z,13.98
2022-10-01T03:49:58.928Z,13.89
2022-10-01T03:51:00.696Z,13.89
2022-10-01T03:52:04.123Z,13.88
2022-10-01T03:53:06.117Z,13.92
2022-10-01T03:54:08.659Z,13.89
2022-10-01T03:55:10.447Z,13.85
2022-10-01T03:56:13.416Z,13.92
2022-10-01T03:57:15.282Z,13.85
2022-10-01T03:58:18.285Z,13.85
2022-10-01T03:59:21.345Z,13.80
2022-10-01T04:00:23.829Z,13.82
2022-10-01T04:01:26.066Z,13.83
2022-10-01T04:02:28.703Z,13.81
2022-10-01T04:03:31.291Z,13.78
2022-10-01T04:04:33.205Z,13.78
2022-10-01T04:05:34.911Z,13.74
2022-10-01T04:06:36.770Z,13.72
2022-10-01T04:07:40.703Z,13.64
2022-10-01T04:08:42.757Z,13.64
2022-10-01T04:09:44.675Z,13.60
2022-10-01T04:10:46.933Z,13.58
2022-10-01T04:11:48.719Z,13.55
2022-10-01T04:12:50.581Z,13.55
2022-10-01T04:13:52.579Z,13.53
2022-10-01T04:14:56.581Z,13.51
2022-10-01T04:15:58.389Z,13.50
2022-10-01T04:17:00.300Z,13.48
2022-10-01T04:18:02.118Z,13.51
2022-10-01T04:19:04.765Z,13.47
2022-10-01T04:20:13.052Z,13.47
2022-10-01T04:21:18.012Z,13.46
2022-10-01T04:22:19.846Z,13.46
2022-10-01T04:23:22.804Z,13.50
2022-10-01T04:24:24.727Z,13.50
2022-10-01T04:25:27.470Z,13.50
2022-10-01T04:26:29.308Z,13.51
2022-10-01T04:27:32.135Z,13.59
2022-10-01T04:28:34.319Z,13.59
2022-10-01T04:29:40.053Z,13.61
2022-10-01T04:30:43.566Z,13.53
2022-10-01T04:31:45.628Z,13.54
2022-10-01T04:32:47.459Z,13.53
2022-10-01T04:33:49.842Z,13.58
2022-10-01T04:34:51.628Z,13.54
2022-10-01T04:35:55.132Z,13.48
2022-10-01T04:36:57.137Z,13.46
2022-10-01T04:38:04.916Z,13.45
2022-10-01T04:39:06.752Z,13.42
2022-10-01T04:40:09.740Z,13.41
2022-10-01T04:41:12.111Z,13.39
2022-10-01T04:42:14.391Z,13.41
2022-10-01T04:43:16.214Z,13.42
2022-10-01T04:44:17.985Z,13.41
2022-10-01T04:45:19.861Z,13.41
2022-10-01T04:46:21.905Z,13.43
2022-10-01T04:47:23.824Z,13.45
2022-10-01T04:48:25.506Z,13.48
2022-10-01T04:49:27.297Z,13.47
2022-10-01T04:50:29.022Z,13.45
2022-10-01T04:51:30.758Z,13.45
2022-10-01T04:52:32.639Z,13.46
2022-10-01T04:53:34.732Z,13.45
2022-10-01T04:54:36.969Z,13.44
2022-10-01T04:55:38.999Z,13.45
2022-10-01T04:56:40.982Z,13.50
2022-10-01T04:57:43.428Z,13.51
2022-10-01T04:58:45.303Z,13.52
2022-10-01T04:59:48.067Z,13.50
2022-10-01T05:00:50.283Z,13.51
2022-10-01T05:01:53.095Z,13.52
2022-10-01T05:02:55.414Z,13.53
2022-10-01T05:03:57.861Z,13.52
2022-10-01T05:05:01.260Z,13.57
2022-10-01T05:06:03.495Z,13.57
2022-10-01T05:07:05.598Z,13.58
2022-10-01T05:08:07.938Z,13.57
2022-10-01T05:09:09.724Z,13.57
2022-10-01T05:10:16.453Z,13.58
2022-10-01T05:11:18.594Z,13.63
2022-10-01T05:12:24.472Z,13.65
2022-10-01T05:13:24.099Z,13.68
2022-10-01T05:14:25.993Z,13.71
2022-10-01T05:15:28.777Z,13.69
2022-10-01T05:16:30.806Z,13.67
2022-10-01T05:17:32.993Z,13.71
2022-10-01T05:18:34.994Z,13.67
2022-10-01T05:19:37.531Z,13.66
2022-10-01T05:20:40.002Z,13.66
2022-10-01T05:21:43.161Z,13.68
2022-10-01T05:22:46.294Z,13.72
2022-10-01T05:23:48.046Z,13.78
2022-10-01T05:24:49.893Z,13.78
2022-10-01T05:25:51.942Z,13.79
2022-10-01T05:26:53.952Z,13.79
2022-10-01T05:28:01.241Z,13.89
2022-10-01T05:29:03.746Z,13.93
2022-10-01T05:30:08.412Z,13.94
2022-10-01T05:31:11.811Z,13.94
2022-10-01T05:32:14.447Z,13.98
2022-10-01T05:33:16.381Z,14.02
2022-10-01T05:34:18.374Z,14.01
2022-10-01T05:35:20.329Z,14.02
2022-10-01T05:36:23.509Z,14.03
2022-10-01T05:37:25.873Z,14.04
2022-10-01T05:38:27.791Z,14.09
2022-10-01T05:39:30.364Z,14.11
2022-10-01T05:40:33.047Z,14.13
2022-10-01T05:41:35.316Z,14.21
2022-10-01T05:42:37.637Z,14.26
2022-10-01T05:43:39.648Z,14.25
2022-10-01T05:44:41.823Z,14.21
2022-10-01T05:45:44.172Z,14.27
2022-10-01T05:46:46.788Z,14.23
2022-10-01T05:47:58.594Z,14.27
2022-10-01T05:49:00.864Z,14.24
2022-10-01T05:50:03.412Z,14.29
2022-10-01T05:51:05.578Z,14.31
2022-10-01T05:52:08.314Z,14.30
2022-10-01T05:53:11.837Z,14.30
2022-10-01T05:54:13.934Z,14.29
2022-10-01T05:55:15.840Z,14.31
2022-10-01T05:56:18.345Z,14.36
2022-10-01T05:57:20.411Z,14.37
2022-10-01T05:58:22.376Z,14.40
2022-10-01T05:59:27.342Z,14.45
2022-10-01T06:00:29.003Z,14.47
2022-10-01T06:01:31.830Z,14.52
2022-10-01T06:02:34.399Z,14.51
2022-10-01T06:03:37.503Z,14.56
2022-10-01T06:04:41.267Z,14.59
2022-10-01T06:05:44.222Z,14.66
2022-10-01T06:06:47.454Z,14.71
2022-10-01T06:07:51.139Z,14.76
2022-10-01T06:08:53.539Z,14.83
2022-10-01T06:09:56.000Z,14.85
2022-10-01T06:10:59.221Z,14.89
2022-10-01T06:12:02.664Z,14.92
2022-10-01T06:13:05.113Z,14.94
2022-10-01T06:14:08.054Z,14.94
2022-10-01T06:15:10.938Z,14.98
2022-10-01T06:16:15.287Z,14.92
2022-10-01T06:17:17.395Z,14.96
2022-10-01T06:18:19.441Z,14.97
2022-10-01T06:19:21.247Z,15.00
2022-10-01T06:20:23.746Z,15.01
2022-10-01T06:21:26.956Z,14.97
2022-10-01T06:22:28.932Z,15.01
2022-10-01T06:23:30.915Z,15.06
2022-10-01T06:24:32.769Z,15.09
2022-10-01T06:25:34.750Z,15.14
2022-10-01T06:26:37.963Z,15.13
2022-10-01T06:27:40.019Z,15.19
2022-10-01T06:28:41.842Z,15.20
2022-10-01T06:29:45.938Z,15.27
2022-10-01T06:30:48.389Z,15.21
2022-10-01T06:31:50.400Z,15.31
2022-10-01T06:32:54.799Z,15.40
2022-10-01T06:33:57.157Z,15.44
2022-10-01T06:34:59.057Z,15.45
2022-10-01T06:36:03.135Z,15.44
2022-10-01T06:37:05.522Z,15.45
2022-10-01T06:38:07.696Z,15.43
2022-10-01T06:39:09.365Z,15.41
2022-10-01T06:40:11.873Z,15.51
2022-10-01T06:41:14.763Z,15.58
2022-10-01T06:42:16.581Z,15.58
2022-10-01T06:43:18.446Z,15.69
2022-10-01T06:44:21.143Z,15.69
2022-10-01T06:45:23.950Z,15.72
2022-10-01T06:46:26.133Z,15.73
2022-10-01T06:47:28.301Z,15.79
2022-10-01T06:48:34.308Z,15.74
2022-10-01T06:49:36.276Z,15.74
2022-10-01T06:50:38.993Z,15.75
2022-10-01T06:51:41.012Z,15.77
2022-10-01T06:52:43.061Z,15.73
2022-10-01T06:53:44.681Z,15.83
2022-10-01T06:54:48.248Z,15.83
2022-10-01T06:55:50.827Z,15.85
2022-10-01T06:56:52.854Z,15.89
2022-10-01T06:57:56.497Z,16.05
2022-10-01T06:58:59.376Z,16.05
2022-10-01T07:00:01.226Z,16.07
2022-10-01T07:01:03.156Z,16.04
2022-10-01T07:02:05.981Z,16.02
2022-10-01T07:03:16.754Z,16.09
2022-10-01T07:04:22.107Z,16.22
2022-10-01T07:05:26.266Z,16.28
2022-10-01T07:06:28.427Z,16.34
2022-10-01T07:07:37.006Z,16.36
2022-10-01T07:09:41.037Z,16.45
2022-10-01T07:10:43.502Z,16.58
2022-10-01T07:11:45.211Z,16.72
2022-10-01T07:12:48.321Z,16.74
2022-10-01T07:13:54.554Z,16.78
2022-10-01T07:14:56.007Z,16.85
2022-10-01T07:15:57.910Z,16.88
2022-10-01T07:17:00.133Z,16.97
2022-10-01T07:18:03.889Z,16.97
2022-10-01T07:19:06.556Z,16.95
2022-10-01T07:20:08.966Z,16.96
2022-10-01T07:21:11.177Z,16.96
2022-10-01T07:22:13.767Z,17.01
2022-10-01T07:23:16.765Z,17.00
2022-10-01T07:24:19.512Z,17.05
2022-10-01T07:25:26.929Z,17.08
2022-10-01T07:26:29.445Z,17.13
2022-10-01T07:27:31.235Z,17.23
2022-10-01T07:28:33.499Z,17.30
2022-10-01T07:29:35.346Z,17.31
2022-10-01T07:30:38.761Z,17.37
2022-10-01T07:31:40.724Z,17.37
2022-10-01T07:32:47.914Z,17.40
2022-10-01T07:33:53.896Z,17.40
2022-10-01T07:34:55.952Z,17.42
2022-10-01T07:36:03.792Z,17.42
2022-10-01T07:37:06.830Z,17.45
2022-10-01T07:38:09.145Z,17.48
2022-10-01T07:39:12.437Z,17.48
2022-10-01T07:40:15.554Z,17.54
2022-10-01T07:41:17.978Z,17.52
2022-10-01T07:42:20.569Z,17.54
2022-10-01T07:43:23.775Z,17.54
2022-10-01T07:44:25.925Z,17.54
2022-10-01T07:45:28.103Z,17.54
2022-10-01T07:46:34.503Z,17.57
2022-10-01T07:47:34.789Z,17.60
2022-10-01T07:48:36.773Z,17.59
2022-10-01T07:49:40.698Z,17.60
2022-10-01T07:50:43.599Z,17.55
2022-10-01T07:51:45.481Z,17.50
2022-10-01T07:52:56.946Z,17.53
2022-10-01T07:53:58.813Z,17.57
2022-10-01T07:55:00.824Z,17.64
2022-10-01T07:56:04.153Z,17.63
2022-10-01T07:57:12.805Z,17.73
2022-10-01T07:58:12.539Z,17.85
2022-10-01T07:59:15.232Z,18.01
2022-10-01T08:00:17.660Z,18.03
2022-10-01T08:01:19.585Z,18.11
2022-10-01T08:02:21.604Z,18.11
2022-10-01T08:03:27.691Z,18.12
2022-10-01T08:04:30.389Z,18.20
2022-10-01T08:05:34.864Z,18.14
2022-10-01T08:06:37.828Z,18.10
2022-10-01T08:07:40.800Z,18.18
2022-10-01T08:08:42.978Z,18.31
2022-10-01T08:09:45.208Z,18.20
2022-10-01T08:10:48.706Z,18.10
2022-10-01T08:11:50.811Z,18.06
2022-10-01T08:13:01.161Z,18.01
2022-10-01T08:14:05.289Z,17.98
2022-10-01T08:16:20.314Z,18.13
2022-10-01T08:17:24.971Z,18.03
2022-10-01T08:18:26.035Z,18.06
2022-10-01T08:19:27.977Z,18.11
2022-10-01T08:20:31.459Z,17.97
2022-10-01T08:21:34.065Z,18.07
2022-10-01T08:22:41.700Z,18.07
2022-10-01T08:23:40.886Z,18.00
2022-10-01T08:24:42.676Z,18.02
2022-10-01T08:25:46.049Z,18.13
2022-10-01T08:26:52.730Z,18.16
2022-10-01T08:27:55.164Z,18.24
2022-10-01T08:28:57.288Z,18.33
2022-10-01T08:29:59.990Z,18.44
2022-10-01T08:31:06.810Z,18.52
2022-10-01T08:32:10.061Z,18.61
2022-10-01T08:33:13.370Z,18.66
2022-10-01T08:34:16.078Z,18.75
2022-10-01T08:35:19.931Z,18.70
2022-10-01T08:36:22.245Z,18.66
2022-10-01T08:37:26.515Z,18.68
2022-10-01T08:38:29.225Z,18.71
2022-10-01T08:39:31.153Z,18.81
2022-10-01T08:40:34.872Z,18.83
2022-10-01T08:43:01.601Z,18.72
2022-10-01T08:44:07.018Z,18.59
2022-10-01T08:45:16.225Z,18.60
2022-10-01T08:46:22.151Z,18.67
2022-10-01T08:47:33.739Z,18.54
2022-10-01T08:48:57.507Z,18.51
2022-10-01T08:50:04.836Z,18.56
2022-10-01T08:51:27.535Z,18.57
2022-10-01T08:52:33.116Z,18.58
2022-10-01T08:53:56.391Z,18.50
2022-10-01T08:55:17.170Z,18.61
2022-10-01T08:56:26.129Z,18.75
2022-10-01T08:57:41.761Z,18.89
2022-10-01T08:58:48.241Z,18.86
2022-10-01T08:59:59.267Z,19.02
2022-10-01T09:01:01.469Z,19.05
2022-10-01T09:02:12.718Z,19.06
2022-10-01T09:03:18.216Z,19.15
2022-10-01T09:04:23.139Z,19.02
2022-10-01T09:05:53.906Z,18.87
2022-10-01T09:08:21.807Z,19.05
2022-10-01T09:09:33.651Z,18.93
2022-10-01T09:10:48.859Z,18.94
2022-10-01T09:12:21.025Z,18.94
2022-10-01T09:13:50.093Z,18.95
2022-10-01T09:15:15.865Z,18.86
2022-10-01T09:16:30.902Z,18.91
2022-10-01T09:17:48.797Z,18.84
2022-10-01T09:19:03.991Z,18.82
2022-10-01T09:20:25.077Z,18.81
2022-10-01T09:21:47.947Z,18.77
2022-10-01T09:23:12.353Z,18.77
2022-10-01T09:24:17.639Z,18.80
2022-10-01T09:25:24.285Z,18.87
2022-10-01T09:26:26.199Z,18.84
2022-10-01T09:27:28.012Z,18.77
2022-10-01T09:28:34.718Z,18.77
2022-10-01T09:29:40.458Z,18.88
2022-10-01T09:30:46.052Z,18.88
2022-10-01T09:31:50.576Z,18.93
2022-10-01T09:32:55.649Z,18.93
2022-10-01T09:34:15.754Z,18.94
2022-10-01T09:35:36.490Z,18.88
2022-10-01T09:38:01.461Z,19.14
2022-10-01T09:39:21.736Z,19.11
2022-10-01T09:40:36.323Z,19.15
2022-10-01T09:41:38.585Z,19.20
2022-10-01T09:42:41.930Z,19.15
2022-10-01T09:43:45.294Z,19.07
2022-10-01T09:44:47.338Z,19.01
2022-10-01T09:45:50.748Z,18.94
2022-10-01T09:46:53.945Z,19.06
2022-10-01T09:47:59.622Z,19.07
2022-10-01T09:49:10.694Z,19.03
2022-10-01T09:50:18.173Z,18.94
2022-10-01T09:51:26.162Z,18.95
2022-10-01T09:52:35.646Z,18.94
2022-10-01T09:54:01.969Z,18.95
2022-10-01T09:55:11.069Z,18.96
2022-10-01T09:58:49.166Z,19.21
2022-10-01T10:00:07.758Z,19.10
2022-10-01T10:01:16.837Z,19.18
2022-10-01T10:03:46.569Z,19.33
2022-10-01T10:04:57.092Z,19.19
2022-10-01T10:06:00.273Z,19.21
2022-10-01T10:07:06.256Z,19.18
2022-10-01T10:08:13.890Z,19.24
2022-10-01T10:09:20.261Z,19.31
2022-10-01T10:10:28.636Z,19.27
2022-10-01T10:11:33.381Z,19.27
2022-10-01T10:12:35.957Z,19.32
2022-10-01T10:13:44.353Z,19.28
2022-10-01T10:14:46.298Z,19.28
2022-10-01T10:15:58.032Z,19.33
2022-10-01T10:17:12.389Z,19.40
2022-10-01T10:18:23.945Z,19.39
2022-10-01T10:19:27.527Z,19.33
2022-10-01T10:20:33.281Z,19.27
2022-10-01T10:21:35.743Z,19.23
2022-10-01T10:22:37.906Z,19.16
2022-10-01T10:23:52.890Z,19.13
2022-10-01T10:24:56.139Z,19.10
2022-10-01T10:26:05.977Z,19.13
2022-10-01T10:27:27.238Z,19.18
2022-10-01T10:28:44.117Z,19.17
2022-10-01T10:29:46.620Z,19.19
2022-10-01T10:30:54.355Z,19.25
2022-10-01T10:31:59.190Z,19.31
2022-10-01T10:33:06.390Z,19.40
2022-10-01T10:34:17.895Z,19.57
2022-10-01T10:35:25.934Z,19.68
2022-10-01T10:36:33.808Z,19.71
2022-10-01T10:37:39.262Z,19.71
2022-10-01T10:38:45.744Z,19.68
2022-10-01T10:39:50.524Z,19.85
2022-10-01T10:40:52.656Z,20.00
2022-10-01T10:42:00.984Z,20.06
2022-10-01T10:43:03.195Z,20.22
2022-10-01T10:44:08.869Z,20.26
2022-10-01T10:45:18.055Z,20.32
2022-10-01T10:46:27.116Z,20.23
2022-10-01T10:47:29.624Z,20.06
2022-10-01T10:48:35.150Z,19.99
2022-10-01T10:49:52.467Z,19.85
2022-10-01T10:51:03.194Z,19.92
2022-10-01T10:52:09.101Z,19.83
2022-10-01T10:53:26.407Z,19.74
2022-10-01T10:54:36.976Z,19.73
2022-10-01T10:55:39.079Z,19.66
2022-10-01T10:56:45.614Z,19.72
2022-10-01T10:57:48.393Z,19.73
2022-10-01T10:58:51.765Z,19.74
2022-10-01T10:59:57.687Z,19.80
2022-10-01T11:01:10.295Z,19.88
2022-10-01T11:02:16.295Z,19.93
2022-10-01T11:03:24.851Z,19.98
2022-10-01T11:04:39.165Z,20.03
2022-10-01T11:05:42.244Z,19.97
2022-10-01T11:06:49.216Z,19.91
2022-10-01T11:08:00.365Z,19.93
2022-10-01T11:09:05.901Z,20.11
2022-10-01T11:10:25.333Z,20.22
2022-10-01T11:11:56.509Z,20.22
2022-10-01T11:13:23.646Z,20.16
2022-10-01T11:14:54.877Z,20.08
2022-10-01T11:16:18.788Z,19.99
2022-10-01T11:18:59.997Z,19.91
2022-10-01T11:20:28.847Z,19.73
2022-10-01T11:22:05.204Z,19.69
2022-10-01T11:23:19.988Z,19.68
2022-10-01T11:24:37.623Z,19.73
2022-10-01T11:25:46.245Z,19.73
2022-10-01T11:26:54.544Z,19.79
2022-10-01T11:28:09.615Z,19.77
2022-10-01T11:29:24.723Z,19.79
2022-10-01T11:30:30.508Z,19.80
2022-10-01T11:31:39.558Z,19.88
2022-10-01T11:32:54.279Z,19.89
2022-10-01T11:34:05.613Z,19.87
2022-10-01T11:35:17.577Z,19.88
2022-10-01T11:36:36.055Z,19.95
2022-10-01T11:37:42.144Z,20.02
2022-10-01T11:38:54.148Z,20.08
2022-10-01T11:39:59.921Z,20.05
2022-10-01T11:41:27.019Z,19.90
2022-10-01T11:42:32.780Z,19.83
2022-10-01T11:43:41.352Z,19.86
2022-10-01T11:44:50.102Z,19.75
2022-10-01T11:45:55.901Z,19.74
2022-10-01T11:47:05.842Z,19.72
2022-10-01T11:48:29.567Z,19.69
2022-10-01T11:49:53.937Z,19.74
2022-10-01T11:50:59.577Z,19.69
2022-10-01T11:52:08.591Z,19.69
2022-10-01T11:53:35.473Z,19.72
2022-10-01T11:54:41.151Z,19.57
2022-10-01T11:57:09.239Z,19.53
2022-10-01T11:58:21.018Z,19.42
2022-10-01T11:59:37.819Z,19.41
2022-10-01T12:00:42.600Z,19.23
2022-10-01T12:02:07.309Z,19.23
2022-10-01T12:03:13.403Z,19.27
2022-10-01T12:04:33.500Z,19.26
2022-10-01T12:05:36.167Z,19.27
2022-10-01T12:06:50.732Z,19.26
2022-10-01T12:08:00.437Z,19.24
2022-10-01T12:09:09.010Z,19.28
2022-10-01T12:10:31.705Z,19.36
2022-10-01T12:11:56.953Z,19.36
2022-10-01T12:13:14.940Z,19.42
2022-10-01T12:15:47.214Z,19.40
2022-10-01T12:16:53.231Z,19.28
2022-10-01T12:18:02.612Z,19.32
2022-10-01T12:19:21.653Z,19.36
2022-10-01T12:20:39.394Z,19.25
2022-10-01T12:21:47.865Z,19.15
2022-10-01T12:22:52.411Z,19.14
2022-10-01T12:24:01.164Z,19.15
2022-10-01T12:25:05.050Z,19.11
2022-10-01T12:26:11.445Z,19.11
2022-10-01T12:27:38.541Z,19.08
2022-10-01T12:28:49.164Z,19.08
2022-10-01T12:29:55.565Z,19.10
2022-10-01T12:31:04.261Z,19.07
2022-10-01T12:32:23.230Z,19.07
2022-10-01T12:33:51.646Z,19.09
2022-10-01T12:35:07.295Z,19.07
2022-10-01T12:36:19.632Z,19.10
2022-10-01T12:37:38.501Z,19.15
2022-10-01T12:38:49.683Z,19.09
2022-10-01T12:40:04.413Z,19.01
2022-10-01T12:41:27.840Z,19.01
2022-10-01T12:42:53.530Z,18.97
2022-10-01T12:44:20.675Z,18.95
2022-10-01T12:45:42.036Z,18.99
2022-10-01T12:46:53.308Z,19.06
2022-10-01T12:48:11.404Z,19.09
2022-10-01T12:49:26.348Z,19.11
2022-10-01T12:50:42.151Z,19.08
2022-10-01T12:51:48.559Z,19.11
2022-10-01T12:53:04.068Z,19.13
2022-10-01T12:54:28.739Z,19.14
2022-10-01T12:55:44.018Z,19.20
2022-10-01T12:57:06.601Z,19.05
2022-10-01T12:58:38.049Z,19.06
2022-10-01T13:00:00.262Z,19.01
2022-10-01T13:01:09.194Z,19.09
2022-10-01T13:02:27.333Z,19.14
2022-10-01T13:03:44.563Z,19.17
2022-10-01T13:06:15.304Z,19.38
2022-10-01T13:07:24.378Z,19.21
2022-10-01T13:08:46.394Z,19.22
2022-10-01T13:10:18.209Z,19.27
2022-10-01T13:11:42.031Z,19.20
2022-10-01T13:13:00.056Z,19.24
2022-10-01T13:14:04.466Z,19.29
2022-10-01T13:15:16.548Z,19.13
2022-10-01T13:16:34.808Z,19.11
2022-10-01T13:17:41.788Z,19.14
2022-10-01T13:19:04.583Z,19.15
2022-10-01T13:20:14.591Z,19.17
2022-10-01T13:21:53.134Z,19.19
2022-10-01T13:23:13.922Z,19.08
2022-10-01T13:24:34.523Z,19.11
2022-10-01T13:25:56.884Z,19.12
2022-10-01T13:27:11.881Z,19.15
2022-10-01T13:28:27.703Z,19.09
2022-10-01T13:29:53.458Z,18.94
2022-10-01T13:31:02.167Z,18.92
2022-10-01T13:32:26.608Z,18.91
2022-10-01T13:33:33.267Z,18.93
2022-10-01T13:34:41.618Z,18.88
2022-10-01T13:35:47.146Z,18.83
2022-10-01T13:36:49.122Z,18.78
2022-10-01T13:37:55.438Z,18.66
2022-10-01T13:38:59.615Z,18.70
2022-10-01T13:40:03.281Z,18.56
2022-10-01T13:41:09.679Z,18.51
2022-10-01T13:42:27.103Z,18.54
2022-10-01T13:43:32.426Z,18.52
2022-10-01T13:44:36.118Z,18.56
2022-10-01T13:45:44.430Z,18.58
2022-10-01T13:47:05.888Z,18.49
2022-10-01T13:48:11.621Z,18.46
2022-10-01T13:49:20.102Z,18.40
2022-10-01T13:50:23.988Z,18.49
2022-10-01T13:51:37.531Z,18.54
2022-10-01T13:52:39.763Z,18.56
2022-10-01T13:53:45.601Z,18.49
2022-10-01T13:54:51.624Z,18.47
2022-10-01T13:55:54.523Z,18.49
2022-10-01T13:57:08.801Z,18.53
2022-10-01T13:58:45.317Z,18.52
2022-10-01T13:59:51.090Z,18.56
2022-10-01T14:00:56.526Z,18.50
2022-10-01T14:01:59.532Z,18.47
2022-10-01T14:03:08.995Z,18.47
2022-10-01T14:04:20.234Z,18.41
2022-10-01T14:05:25.764Z,18.31
2022-10-01T14:06:32.823Z,18.17
2022-10-01T14:07:39.162Z,18.13
2022-10-01T14:08:54.362Z,18.18
2022-10-01T14:10:00.162Z,18.12
2022-10-01T14:11:14.597Z,18.07
2022-10-01T14:12:26.499Z,18.08
2022-10-01T14:13:31.292Z,18.06
2022-10-01T14:14:40.748Z,18.06
2022-10-01T14:15:46.759Z,18.06
2022-10-01T14:16:49.641Z,18.09
2022-10-01T14:17:53.757Z,18.11
2022-10-01T14:18:56.008Z,18.09
2022-10-01T14:20:00.831Z,18.09
2022-10-01T14:21:13.105Z,18.01
2022-10-01T14:22:47.769Z,18.01
2022-10-01T14:24:05.833Z,18.01
2022-10-01T14:25:41.594Z,18.07
2022-10-01T14:26:57.632Z,18.09
2022-10-01T14:28:31.552Z,18.08
2022-10-01T14:29:50.810Z,18.14
2022-10-01T14:31:34.144Z,18.15
2022-10-01T14:34:24.329Z,18.32
2022-10-01T14:35:32.950Z,18.21
2022-10-01T14:36:44.409Z,18.24
2022-10-01T14:37:46.596Z,18.24
2022-10-01T14:38:48.616Z,18.27
2022-10-01T14:40:01.833Z,18.28
2022-10-01T14:41:04.427Z,18.31
2022-10-01T14:42:16.498Z,18.28
2022-10-01T14:43:19.397Z,18.28
2022-10-01T14:44:40.219Z,18.32
2022-10-01T14:46:10.002Z,18.20